Flight Track Log - Related Links

Times and Time Zones

All times are in EDT time to prevent confusion due to time zone crossing. See the KAL1332 flight status page for this flight to view local times or setup timezone preferences in your user account.

Time Position Orientation Groundspeed Altitude Reporting Facility
EDT Latitude Longitude Course Direction KTS MPH feet Rate Location/Type
Mon 07:57:00 PM 35.1346 127.5287 346° North  Level Estimated
Mon 07:58:00 PM 35.2083 127.5069 346° North  Level Estimated
Mon 07:59:00 PM 35.2820 127.4851 346° North  Level Estimated
Mon 08:00:00 PM 35.3557 127.4633 346° North  Level Estimated
Mon 08:01:00 PM 35.4293 127.4414 346° North  Level Estimated
Mon 08:02:00 PM 35.5145 127.4161 346° North  Level Estimated
Mon 08:03:00 PM 35.5997 127.3906 346° North  Level Estimated
Mon 08:04:00 PM 35.6849 127.3652 346° North  Level Estimated
Mon 08:05:00 PM 35.7700 127.3397 346° North  Level Estimated
Mon 08:06:00 PM 35.8552 127.3141 346° North  Level Estimated
Mon 08:07:00 PM 35.9403 127.2885 346° North  Level Estimated
Mon 08:08:00 PM 36.0255 127.2628 346° North  Level Estimated
Mon 08:09:00 PM 36.1106 127.2371 346° North  Level Estimated
Mon 08:10:00 PM 36.1958 127.2113 346° North  Level Estimated
Mon 08:11:00 PM 36.2809 127.1855 346° North  Level Estimated
Mon 08:12:00 PM 36.3661 127.1596 346° North  Level Estimated
Mon 08:13:00 PM 36.4512 127.1336 346° North  Level Estimated
Mon 08:14:00 PM 36.5363 127.1076 346° North  Level Estimated
Mon 08:15:00 PM 36.6214 127.0816 346° North  Level Estimated
Mon 08:16:00 PM 36.7065 127.0554 346° North  Level Estimated
Mon 08:17:00 PM 36.7916 127.0292 346° North  Level Estimated
Mon 08:18:00 PM 36.8767 127.0030 346° North  Level Estimated
Mon 08:19:00 PM 36.9618 126.9767 346° North  Level Estimated
Mon 08:20:00 PM 37.0469 126.9503 346° North  Level Estimated
Mon 08:21:00 PM 37.1320 126.9239 346° North  Level Estimated
Mon 08:22:00 PM 37.2170 126.8974 346° North  Level Estimated
Mon 08:23:00 PM 37.3021 126.8709 346° North  Level Estimated
Mon 08:24:00 PM 37.3872 126.8443 346° North  Level Estimated
Mon 08:25:00 PM 37.4722 126.8176 346° North  Level Estimated
Mon 08:26:00 PM 37.5573 126.7909 346° North  Level Estimated
Mon 08:27:00 PM 37.5583 126.7906 346° North  Level Estimated
Mon 08:28:00 PM 37.5583 126.7906 288° West  Level Estimated
Mon 08:29:00 PM 37.5583 126.7906 288° West  Level Estimated
Mon 08:30:00 PM 37.5583 126.7906 288° West  Level Estimated
Mon 08:31:00 PM 37.5583 126.7906 288° West  Level Estimated
Mon 08:32:00 PM 37.5583 126.7906 288° West  Level Estimated

Login

Don't have an account? Register now (free) for customized features, flight alerts, and more!